sensor_id;sensor_type;location;lat;lon;timestamp;pressure;altitude;pressure_sealevel;temperature;humidity
13013;BME280;22580;57.670;12.006;2022-09-27T00:00:16;99071.91;;;15.24;100.00
13013;BME280;22580;57.670;12.006;2022-09-27T00:02:43;99089.50;;;15.35;100.00
13013;BME280;22580;57.670;12.006;2022-09-27T00:05:10;99080.28;;;15.29;100.00
13013;BME280;22580;57.670;12.006;2022-09-27T00:07:37;99089.97;;;15.38;100.00
13013;BME280;22580;57.670;12.006;2022-09-27T00:10:05;99076.09;;;15.27;100.00
13013;BME280;22580;57.670;12.006;2022-09-27T00:12:33;99094.88;;;15.35;100.00
13013;BME280;22580;57.670;12.006;2022-09-27T00:15:01;99081.84;;;15.47;100.00
13013;BME280;22580;57.670;12.006;2022-09-27T00:17:29;99087.03;;;15.48;100.00
13013;BME280;22580;57.670;12.006;2022-09-27T00:19:58;99078.00;;;15.41;100.00
13013;BME280;22580;57.670;12.006;2022-09-27T00:22:25;99080.47;;;15.28;100.00
13013;BME280;22580;57.670;12.006;2022-09-27T00:24:52;99078.84;;;15.41;100.00
13013;BME280;22580;57.670;12.006;2022-09-27T00:27:19;99079.91;;;15.32;100.00
13013;BME280;22580;57.670;12.006;2022-09-27T00:29:46;99071.00;;;15.32;100.00
13013;BME280;22580;57.670;12.006;2022-09-27T00:32:15;99076.09;;;15.27;100.00
13013;BME280;22580;57.670;12.006;2022-09-27T00:34:42;99072.00;;;15.54;100.00
13013;BME280;22580;57.670;12.006;2022-09-27T00:37:09;99076.38;;;15.55;100.00
13013;BME280;22580;57.670;12.006;2022-09-27T00:39:39;99060.41;;;15.53;100.00
13013;BME280;22580;57.670;12.006;2022-09-27T00:42:08;99072.84;;;15.54;100.00
13013;BME280;22580;57.670;12.006;2022-09-27T00:45:08;99068.47;;;15.91;100.00
13013;BME280;22580;57.670;12.006;2022-09-27T00:47:46;99075.28;;;15.64;100.00
13013;BME280;22580;57.670;12.006;2022-09-27T00:50:27;99079.06;;;15.55;100.00
13013;BME280;22580;57.670;12.006;2022-09-27T00:53:03;99051.91;;;15.41;100.00
13013;BME280;22580;57.670;12.006;2022-09-27T00:55:37;99069.81;;;15.57;100.00
13013;BME280;22580;57.670;12.006;2022-09-27T00:58:06;99054.84;;;15.55;100.00
13013;BME280;22580;57.670;12.006;2022-09-27T01:00:35;99046.41;;;15.35;100.00
13013;BME280;22580;57.670;12.006;2022-09-27T01:03:06;99049.84;;;15.29;100.00
13013;BME280;22580;57.670;12.006;2022-09-27T01:05:35;99051.25;;;15.39;100.00
13013;BME280;22580;57.670;12.006;2022-09-27T01:08:03;99058.94;;;15.65;100.00
13013;BME280;22580;57.670;12.006;2022-09-27T01:10:34;99040.00;;;15.36;100.00
13013;BME280;22580;57.670;12.006;2022-09-27T01:13:10;99043.25;;;15.31;100.00
13013;BME280;22580;57.670;12.006;2022-09-27T01:15:43;99042.72;;;15.36;100.00
13013;BME280;22580;57.670;12.006;2022-09-27T01:18:29;99049.88;;;15.44;100.00
13013;BME280;22580;57.670;12.006;2022-09-27T01:24:37;99055.16;;;15.74;100.00
13013;BME280;22580;57.670;12.006;2022-09-27T01:30:20;99052.59;;;15.96;100.00
13013;BME280;22580;57.670;12.006;2022-09-27T01:32:55;99041.34;;;16.07;100.00
13013;BME280;22580;57.670;12.006;2022-09-27T01:35:33;99057.56;;;15.69;100.00
13013;BME280;22580;57.670;12.006;2022-09-27T01:38:11;99030.06;;;15.74;100.00
13013;BME280;22580;57.670;12.006;2022-09-27T01:40:49;99061.03;;;15.78;100.00
13013;BME280;22580;57.670;12.006;2022-09-27T01:43:22;99036.97;;;15.77;100.00
13013;BME280;22580;57.670;12.006;2022-09-27T01:45:56;99051.47;;;16.05;100.00
13013;BME280;22580;57.670;12.006;2022-09-27T01:48:29;99029.72;;;15.77;100.00
13013;BME280;22580;57.670;12.006;2022-09-27T01:51:02;99057.16;;;16.10;100.00
13013;BME280;22580;57.670;12.006;2022-09-27T01:53:33;99052.97;;;16.08;100.00
13013;BME280;22580;57.670;12.006;2022-09-27T01:56:05;99037.66;;;15.56;100.00
13013;BME280;22580;57.670;12.006;2022-09-27T01:58:36;99052.19;;;15.84;100.00
13013;BME280;22580;57.670;12.006;2022-09-27T02:01:08;99059.25;;;15.85;100.00
13013;BME280;22580;57.670;12.006;2022-09-27T02:03:40;99055.91;;;15.83;100.00
13013;BME280;22580;57.670;12.006;2022-09-27T02:06:11;99064.69;;;15.62;100.00
13013;BME280;22580;57.670;12.006;2022-09-27T02:08:44;99064.56;;;15.93;100.00
13013;BME280;22580;57.670;12.006;2022-09-27T02:11:13;99060.56;;;15.89;100.00
13013;BME280;22580;57.670;12.006;2022-09-27T02:13:43;99060.53;;;15.74;100.00
13013;BME280;22580;57.670;12.006;2022-09-27T02:16:20;99012.28;;;15.50;100.00
13013;BME280;22580;57.670;12.006;2022-09-27T02:18:57;99035.13;;;15.92;100.00
13013;BME280;22580;57.670;12.006;2022-09-27T02:21:37;99070.25;;;16.13;100.00
13013;BME280;22580;57.670;12.006;2022-09-27T02:24:08;99066.31;;;15.86;100.00
13013;BME280;22580;57.670;12.006;2022-09-27T02:26:40;99055.75;;;16.14;100.00
13013;BME280;22580;57.670;12.006;2022-09-27T02:29:10;99049.44;;;15.92;100.00
13013;BME280;22580;57.670;12.006;2022-09-27T02:31:42;99062.25;;;16.05;100.00
13013;BME280;22580;57.670;12.006;2022-09-27T02:34:13;99070.53;;;16.18;100.00
13013;BME280;22580;57.670;12.006;2022-09-27T02:36:41;99073.88;;;16.05;100.00
13013;BME280;22580;57.670;12.006;2022-09-27T02:39:08;99074.91;;;16.19;100.00
13013;BME280;22580;57.670;12.006;2022-09-27T02:41:35;99078.81;;;16.17;100.00
13013;BME280;22580;57.670;12.006;2022-09-27T02:44:05;99072.84;;;16.06;100.00
13013;BME280;22580;57.670;12.006;2022-09-27T02:46:51;99075.66;;;16.13;100.00
13013;BME280;22580;57.670;12.006;2022-09-27T02:49:36;99070.41;;;15.82;100.00
13013;BME280;22580;57.670;12.006;2022-09-27T02:52:13;99069.28;;;15.77;100.00
13013;BME280;22580;57.670;12.006;2022-09-27T02:54:52;99079.19;;;16.14;100.00
13013;BME280;22580;57.670;12.006;2022-09-27T02:57:32;99082.22;;;15.96;100.00
13013;BME280;22580;57.670;12.006;2022-09-27T03:00:04;99087.69;;;15.88;100.00
13013;BME280;22580;57.670;12.006;2022-09-27T03:02:42;99084.28;;;15.94;100.00
13013;BME280;22580;57.670;12.006;2022-09-27T03:05:16;99086.31;;;15.92;100.00
13013;BME280;22580;57.670;12.006;2022-09-27T03:07:44;99083.56;;;16.15;100.00
13013;BME280;22580;57.670;12.006;2022-09-27T03:10:15;99077.75;;;15.88;100.00
13013;BME280;22580;57.670;12.006;2022-09-27T03:12:43;99074.38;;;15.71;100.00
13013;BME280;22580;57.670;12.006;2022-09-27T03:15:10;99077.72;;;15.73;100.00
13013;BME280;22580;57.670;12.006;2022-09-27T03:17:38;99046.59;;;15.71;100.00
13013;BME280;22580;57.670;12.006;2022-09-27T03:20:06;99069.41;;;15.98;100.00
13013;BME280;22580;57.670;12.006;2022-09-27T03:22:33;99079.63;;;15.88;100.00
13013;BME280;22580;57.670;12.006;2022-09-27T03:25:00;99084.06;;;15.81;100.00
13013;BME280;22580;57.670;12.006;2022-09-27T03:27:27;99070.75;;;15.64;100.00
13013;BME280;22580;57.670;12.006;2022-09-27T03:29:54;99075.94;;;15.66;100.00
13013;BME280;22580;57.670;12.006;2022-09-27T03:32:22;99057.75;;;15.68;100.00
13013;BME280;22580;57.670;12.006;2022-09-27T03:34:50;99080.78;;;15.70;100.00
13013;BME280;22580;57.670;12.006;2022-09-27T03:37:18;99065.28;;;15.72;100.00
13013;BME280;22580;57.670;12.006;2022-09-27T03:39:46;99076.06;;;15.72;100.00
13013;BME280;22580;57.670;12.006;2022-09-27T03:42:13;99078.22;;;15.92;100.00
13013;BME280;22580;57.670;12.006;2022-09-27T03:44:40;99073.84;;;15.91;100.00
13013;BME280;22580;57.670;12.006;2022-09-27T03:47:07;99077.56;;;15.90;100.00
13013;BME280;22580;57.670;12.006;2022-09-27T03:49:34;99083.16;;;16.03;100.00
13013;BME280;22580;57.670;12.006;2022-09-27T03:52:02;99064.16;;;15.67;100.00
13013;BME280;22580;57.670;12.006;2022-09-27T03:54:29;99075.50;;;15.77;100.00
13013;BME280;22580;57.670;12.006;2022-09-27T03:56:57;99069.34;;;15.68;100.00
13013;BME280;22580;57.670;12.006;2022-09-27T03:59:24;99076.09;;;15.87;100.00
13013;BME280;22580;57.670;12.006;2022-09-27T04:01:51;99066.84;;;15.67;100.00
13013;BME280;22580;57.670;12.006;2022-09-27T04:04:19;99075.50;;;15.77;100.00
13013;BME280;22580;57.670;12.006;2022-09-27T04:06:48;99073.84;;;15.91;100.00
13013;BME280;22580;57.670;12.006;2022-09-27T04:09:16;99074.25;;;16.02;100.00
13013;BME280;22580;57.670;12.006;2022-09-27T04:11:43;99064.44;;;15.57;100.00
13013;BME280;22580;57.670;12.006;2022-09-27T04:14:10;99089.19;;;15.53;100.00
13013;BME280;22580;57.670;12.006;2022-09-27T04:16:38;99074.78;;;15.46;100.00
13013;BME280;22580;57.670;12.006;2022-09-27T04:19:06;99087.91;;;15.63;100.00
13013;BME280;22580;57.670;12.006;2022-09-27T04:21:33;99073.53;;;15.71;100.00
13013;BME280;22580;57.670;12.006;2022-09-27T04:24:01;99095.41;;;15.91;100.00
13013;BME280;22580;57.670;12.006;2022-09-27T04:26:31;99093.91;;;15.73;100.00
13013;BME280;22580;57.670;12.006;2022-09-27T04:28:58;99093.06;;;15.73;100.00
13013;BME280;22580;57.670;12.006;2022-09-27T04:31:25;99085.38;;;15.85;100.00
13013;BME280;22580;57.670;12.006;2022-09-27T04:33:52;99084.53;;;15.84;100.00
13013;BME280;22580;57.670;12.006;2022-09-27T04:36:20;99085.22;;;16.01;100.00
13013;BME280;22580;57.670;12.006;2022-09-27T04:38:53;99086.56;;;15.82;100.00
13013;BME280;22580;57.670;12.006;2022-09-27T04:41:21;99091.78;;;15.84;100.00
13013;BME280;22580;57.670;12.006;2022-09-27T04:43:50;99095.03;;;15.79;100.00
13013;BME280;22580;57.670;12.006;2022-09-27T04:46:18;99098.69;;;16.01;100.00
13013;BME280;22580;57.670;12.006;2022-09-27T04:48:46;99093.59;;;16.06;100.00
13013;BME280;22580;57.670;12.006;2022-09-27T04:51:13;99084.44;;;15.78;100.00
13013;BME280;22580;57.670;12.006;2022-09-27T04:53:42;99097.34;;;15.82;100.00
13013;BME280;22580;57.670;12.006;2022-09-27T04:56:09;99104.03;;;15.86;100.00
13013;BME280;22580;57.670;12.006;2022-09-27T04:58:37;99108.09;;;15.67;100.00
13013;BME280;22580;57.670;12.006;2022-09-27T05:01:06;99101.97;;;15.73;100.00
13013;BME280;22580;57.670;12.006;2022-09-27T05:03:33;99093.38;;;15.55;100.00
13013;BME280;22580;57.670;12.006;2022-09-27T05:06:02;99094.63;;;15.67;100.00
13013;BME280;22580;57.670;12.006;2022-09-27T05:08:29;99105.50;;;15.74;100.00
13013;BME280;22580;57.670;12.006;2022-09-27T05:10:56;99099.13;;;15.52;100.00
13013;BME280;22580;57.670;12.006;2022-09-27T05:13:23;99100.19;;;15.66;100.00
13013;BME280;22580;57.670;12.006;2022-09-27T05:15:50;99101.88;;;15.67;100.00
13013;BME280;22580;57.670;12.006;2022-09-27T05:18:18;99104.69;;;15.51;100.00
13013;BME280;22580;57.670;12.006;2022-09-27T05:20:45;99083.28;;;15.57;100.00
13013;BME280;22580;57.670;12.006;2022-09-27T05:23:12;99111.59;;;15.91;100.00
13013;BME280;22580;57.670;12.006;2022-09-27T05:25:40;99110.06;;;15.73;100.00
13013;BME280;22580;57.670;12.006;2022-09-27T05:28:07;99117.03;;;15.83;100.00
13013;BME280;22580;57.670;12.006;2022-09-27T05:30:34;99117.09;;;15.60;100.00
13013;BME280;22580;57.670;12.006;2022-09-27T05:33:02;99105.97;;;15.78;100.00
13013;BME280;22580;57.670;12.006;2022-09-27T05:35:30;99125.97;;;15.83;100.00
13013;BME280;22580;57.670;12.006;2022-09-27T05:38:00;99117.72;;;15.99;100.00
13013;BME280;22580;57.670;12.006;2022-09-27T05:40:27;99117.19;;;16.04;100.00
13013;BME280;22580;57.670;12.006;2022-09-27T05:42:55;99120.31;;;15.93;100.00
13013;BME280;22580;57.670;12.006;2022-09-27T05:45:24;99132.13;;;15.92;100.00
13013;BME280;22580;57.670;12.006;2022-09-27T05:47:52;99113.63;;;15.89;100.00
13013;BME280;22580;57.670;12.006;2022-09-27T05:50:19;99135.59;;;16.15;100.00
13013;BME280;22580;57.670;12.006;2022-09-27T05:52:51;99119.75;;;15.83;100.00
13013;BME280;22580;57.670;12.006;2022-09-27T05:55:19;99131.50;;;16.04;100.00
13013;BME280;22580;57.670;12.006;2022-09-27T05:57:56;99129.38;;;16.15;100.00
13013;BME280;22580;57.670;12.006;2022-09-27T06:00:24;99140.78;;;16.02;100.00
13013;BME280;22580;57.670;12.006;2022-09-27T06:02:55;99137.91;;;16.03;100.00
13013;BME280;22580;57.670;12.006;2022-09-27T06:05:24;99134.81;;;15.92;100.00
13013;BME280;22580;57.670;12.006;2022-09-27T06:07:58;99128.78;;;15.90;100.00
13013;BME280;22580;57.670;12.006;2022-09-27T06:10:26;99149.41;;;15.97;100.00
13013;BME280;22580;57.670;12.006;2022-09-27T06:12:58;99140.84;;;15.94;100.00
13013;BME280;22580;57.670;12.006;2022-09-27T06:15:25;99155.38;;;16.08;100.00
13013;BME280;22580;57.670;12.006;2022-09-27T06:17:52;99140.25;;;16.21;100.00
13013;BME280;22580;57.670;12.006;2022-09-27T06:20:19;99161.06;;;16.13;100.00
13013;BME280;22580;57.670;12.006;2022-09-27T06:22:46;99153.56;;;16.23;100.00
13013;BME280;22580;57.670;12.006;2022-09-27T06:25:15;99149.63;;;16.11;100.00
13013;BME280;22580;57.670;12.006;2022-09-27T06:27:42;99152.06;;;16.20;100.00
13013;BME280;22580;57.670;12.006;2022-09-27T06:30:10;99143.97;;;16.20;100.00
13013;BME280;22580;57.670;12.006;2022-09-27T06:32:37;99138.78;;;15.81;100.00
13013;BME280;22580;57.670;12.006;2022-09-27T06:35:05;99157.59;;;16.04;100.00
13013;BME280;22580;57.670;12.006;2022-09-27T06:37:32;99151.13;;;16.13;100.00
13013;BME280;22580;57.670;12.006;2022-09-27T06:39:59;99132.25;;;16.13;100.00
13013;BME280;22580;57.670;12.006;2022-09-27T06:42:28;99156.19;;;15.93;100.00
13013;BME280;22580;57.670;12.006;2022-09-27T06:44:55;99142.97;;;16.21;100.00
13013;BME280;22580;57.670;12.006;2022-09-27T06:47:21;99157.31;;;16.81;100.00
13013;BME280;22580;57.670;12.006;2022-09-27T06:49:49;99132.00;;;16.82;100.00
13013;BME280;22580;57.670;12.006;2022-09-27T06:52:16;99152.38;;;16.84;100.00
13013;BME280;22580;57.670;12.006;2022-09-27T06:54:43;99156.06;;;16.98;100.00
13013;BME280;22580;57.670;12.006;2022-09-27T06:57:10;99151.06;;;17.31;100.00
13013;BME280;22580;57.670;12.006;2022-09-27T07:00:00;99155.03;;;17.35;100.00
13013;BME280;22580;57.670;12.006;2022-09-27T07:02:45;99120.41;;;17.02;100.00
13013;BME280;22580;57.670;12.006;2022-09-27T07:05:12;99160.75;;;17.47;100.00
13013;BME280;22580;57.670;12.006;2022-09-27T07:07:39;99146.31;;;17.33;100.00
13013;BME280;22580;57.670;12.006;2022-09-27T07:10:08;99161.53;;;17.19;100.00
13013;BME280;22580;57.670;12.006;2022-09-27T07:12:35;99160.53;;;17.06;100.00
13013;BME280;22580;57.670;12.006;2022-09-27T07:15:04;99164.34;;;16.96;100.00
13013;BME280;22580;57.670;12.006;2022-09-27T07:17:31;99165.38;;;16.95;100.00
13013;BME280;22580;57.670;12.006;2022-09-27T07:20:00;99165.91;;;17.20;100.00
13013;BME280;22580;57.670;12.006;2022-09-27T07:22:27;99168.81;;;17.04;100.00
13013;BME280;22580;57.670;12.006;2022-09-27T07:24:55;99172.25;;;17.13;100.00
13013;BME280;22580;57.670;12.006;2022-09-27T07:27:22;99153.16;;;17.14;100.00
13013;BME280;22580;57.670;12.006;2022-09-27T07:29:51;99175.16;;;16.96;100.00
13013;BME280;22580;57.670;12.006;2022-09-27T07:32:20;99172.09;;;16.85;100.00
13013;BME280;22580;57.670;12.006;2022-09-27T07:34:47;99179.63;;;16.75;100.00
13013;BME280;22580;57.670;12.006;2022-09-27T07:37:14;99173.81;;;17.22;100.00
13013;BME280;22580;57.670;12.006;2022-09-27T07:39:41;99171.03;;;17.36;100.00
13013;BME280;22580;57.670;12.006;2022-09-27T07:42:09;99178.69;;;16.97;100.00
13013;BME280;22580;57.670;12.006;2022-09-27T07:44:35;99177.34;;;17.22;100.00
13013;BME280;22580;57.670;12.006;2022-09-27T07:47:05;99175.41;;;17.37;100.00
13013;BME280;22580;57.670;12.006;2022-09-27T07:49:34;99181.72;;;17.45;100.00
13013;BME280;22580;57.670;12.006;2022-09-27T07:52:02;99190.25;;;17.63;100.00
13013;BME280;22580;57.670;12.006;2022-09-27T07:54:29;99189.91;;;17.87;100.00
13013;BME280;22580;57.670;12.006;2022-09-27T07:56:56;99190.94;;;17.86;100.00
13013;BME280;22580;57.670;12.006;2022-09-27T07:59:23;99206.63;;;18.19;100.00
13013;BME280;22580;57.670;12.006;2022-09-27T08:01:52;99200.06;;;18.34;100.00
13013;BME280;22580;57.670;12.006;2022-09-27T08:04:20;99209.75;;;18.50;100.00
13013;BME280;22580;57.670;12.006;2022-09-27T08:06:48;99197.88;;;18.51;100.00
13013;BME280;22580;57.670;12.006;2022-09-27T08:09:15;99216.38;;;18.48;100.00
13013;BME280;22580;57.670;12.006;2022-09-27T08:11:42;99207.47;;;18.54;100.00
13013;BME280;22580;57.670;12.006;2022-09-27T08:14:10;99191.69;;;18.57;100.00
13013;BME280;22580;57.670;12.006;2022-09-27T08:16:37;99209.47;;;18.66;100.00
13013;BME280;22580;57.670;12.006;2022-09-27T08:19:04;99202.72;;;18.56;100.00
13013;BME280;22580;57.670;12.006;2022-09-27T08:21:31;99220.63;;;18.85;100.00
13013;BME280;22580;57.670;12.006;2022-09-27T08:24:00;99226.81;;;18.51;100.00
13013;BME280;22580;57.670;12.006;2022-09-27T08:26:28;99229.38;;;18.87;100.00
13013;BME280;22580;57.670;12.006;2022-09-27T08:28:55;99220.31;;;19.08;100.00
13013;BME280;22580;57.670;12.006;2022-09-27T08:31:22;99224.09;;;19.13;100.00
13013;BME280;22580;57.670;12.006;2022-09-27T08:33:50;99214.91;;;19.14;100.00
13013;BME280;22580;57.670;12.006;2022-09-27T08:36:18;99221.09;;;19.43;100.00
13013;BME280;22580;57.670;12.006;2022-09-27T08:38:47;99213.91;;;19.22;100.00
13013;BME280;22580;57.670;12.006;2022-09-27T08:41:25;99227.19;;;19.04;100.00
13013;BME280;22580;57.670;12.006;2022-09-27T08:44:06;99220.84;;;19.31;100.00
13013;BME280;22580;57.670;12.006;2022-09-27T08:46:40;99222.78;;;19.50;100.00
13013;BME280;22580;57.670;12.006;2022-09-27T08:49:13;99215.38;;;19.24;100.00
13013;BME280;22580;57.670;12.006;2022-09-27T08:51:47;99223.72;;;19.23;100.00
13013;BME280;22580;57.670;12.006;2022-09-27T08:54:19;99220.84;;;19.38;100.00
13013;BME280;22580;57.670;12.006;2022-09-27T08:56:49;99225.97;;;19.60;100.00
13013;BME280;22580;57.670;12.006;2022-09-27T08:59:19;99216.19;;;19.59;100.00
13013;BME280;22580;57.670;12.006;2022-09-27T09:01:51;99225.06;;;19.47;100.00
13013;BME280;22580;57.670;12.006;2022-09-27T09:04:23;99229.56;;;19.81;100.00
13013;BME280;22580;57.670;12.006;2022-09-27T09:07:00;99220.16;;;19.70;100.00
13013;BME280;22580;57.670;12.006;2022-09-27T09:09:33;99228.28;;;19.70;100.00
13013;BME280;22580;57.670;12.006;2022-09-27T09:12:15;99229.94;;;19.58;100.00
13013;BME280;22580;57.670;12.006;2022-09-27T09:15:12;99233.31;;;19.73;100.00
13013;BME280;22580;57.670;12.006;2022-09-27T09:18:13;99234.13;;;19.67;100.00
13013;BME280;22580;57.670;12.006;2022-09-27T09:20:55;99241.19;;;19.61;100.00
13013;BME280;22580;57.670;12.006;2022-09-27T09:23:45;99249.44;;;19.47;100.00
13013;BME280;22580;57.670;12.006;2022-09-27T09:26:17;99237.38;;;19.49;100.00
13013;BME280;22580;57.670;12.006;2022-09-27T09:29:00;99246.16;;;19.51;100.00
13013;BME280;22580;57.670;12.006;2022-09-27T09:31:39;99228.13;;;19.78;100.00
13013;BME280;22580;57.670;12.006;2022-09-27T09:34:11;99244.19;;;19.86;100.00
13013;BME280;22580;57.670;12.006;2022-09-27T09:36:44;99224.13;;;19.68;100.00
13013;BME280;22580;57.670;12.006;2022-09-27T09:39:15;99240.22;;;19.95;100.00
13013;BME280;22580;57.670;12.006;2022-09-27T09:41:56;99243.38;;;20.19;100.00
13013;BME280;22580;57.670;12.006;2022-09-27T09:44:33;99237.31;;;20.10;100.00
13013;BME280;22580;57.670;12.006;2022-09-27T09:47:11;99227.09;;;20.19;100.00
13013;BME280;22580;57.670;12.006;2022-09-27T09:49:43;99233.19;;;20.41;99.66
13013;BME280;22580;57.670;12.006;2022-09-27T09:52:14;99234.84;;;20.35;99.32
13013;BME280;22580;57.670;12.006;2022-09-27T09:54:46;99238.81;;;20.33;99.37
13013;BME280;22580;57.670;12.006;2022-09-27T09:57:19;99241.91;;;20.16;99.65
13013;BME280;22580;57.670;12.006;2022-09-27T09:59:51;99236.28;;;20.31;99.23
13013;BME280;22580;57.670;12.006;2022-09-27T10:02:27;99191.19;;;20.10;99.33
13013;BME280;22580;57.670;12.006;2022-09-27T10:04:56;99240.09;;;20.50;98.79
13013;BME280;22580;57.670;12.006;2022-09-27T10:07:23;99224.84;;;20.49;98.72
13013;BME280;22580;57.670;12.006;2022-09-27T10:09:51;99232.16;;;20.48;98.32
13013;BME280;22580;57.670;12.006;2022-09-27T10:12:19;99227.97;;;20.46;97.97
13013;BME280;22580;57.670;12.006;2022-09-27T10:14:48;99242.38;;;20.40;98.81
13013;BME280;22580;57.670;12.006;2022-09-27T10:17:19;99217.50;;;20.23;98.80
13013;BME280;22580;57.670;12.006;2022-09-27T10:19:47;99237.31;;;20.17;98.99
13013;BME280;22580;57.670;12.006;2022-09-27T10:22:22;99233.00;;;20.42;98.75
13013;BME280;22580;57.670;12.006;2022-09-27T10:24:58;99238.81;;;20.33;98.34
13013;BME280;22580;57.670;12.006;2022-09-27T10:27:27;99234.66;;;20.50;98.78
13013;BME280;22580;57.670;12.006;2022-09-27T10:29:59;99241.94;;;20.36;98.29
13013;BME280;22580;57.670;12.006;2022-09-27T10:32:29;99244.84;;;20.28;98.47
13013;BME280;22580;57.670;12.006;2022-09-27T10:35:18;99233.00;;;20.49;98.18
13013;BME280;22580;57.670;12.006;2022-09-27T10:37:46;99236.75;;;20.41;98.16
13013;BME280;22580;57.670;12.006;2022-09-27T10:40:26;99230.44;;;20.27;98.26
13013;BME280;22580;57.670;12.006;2022-09-27T10:42:53;99243.41;;;20.58;97.94
13013;BME280;22580;57.670;12.006;2022-09-27T10:45:30;99244.47;;;20.64;97.92
13013;BME280;22580;57.670;12.006;2022-09-27T10:47:58;99235.69;;;20.62;98.03
13013;BME280;22580;57.670;12.006;2022-09-27T10:50:28;99229.00;;;20.71;97.74
13013;BME280;22580;57.670;12.006;2022-09-27T10:53:03;99222.72;;;20.77;97.32
13013;BME280;22580;57.670;12.006;2022-09-27T10:55:33;99235.16;;;21.05;97.17
13013;BME280;22580;57.670;12.006;2022-09-27T10:58:00;99236.03;;;20.92;96.43
13013;BME280;22580;57.670;12.006;2022-09-27T11:00:32;99222.53;;;20.59;97.98
13013;BME280;22580;57.670;12.006;2022-09-27T11:03:02;99206.88;;;20.41;98.64
13013;BME280;22580;57.670;12.006;2022-09-27T11:05:38;99238.00;;;20.52;99.02
13013;BME280;22580;57.670;12.006;2022-09-27T11:08:28;99234.66;;;20.43;99.71
13013;BME280;22580;57.670;12.006;2022-09-27T11:11:10;99229.22;;;20.56;100.00
13013;BME280;22580;57.670;12.006;2022-09-27T11:13:56;99233.19;;;20.41;100.00
13013;BME280;22580;57.670;12.006;2022-09-27T11:16:36;99236.72;;;20.35;100.00
13013;BME280;22580;57.670;12.006;2022-09-27T11:19:16;99238.16;;;20.17;100.00
13013;BME280;22580;57.670;12.006;2022-09-27T11:21:55;99235.03;;;20.27;100.00
13013;BME280;22580;57.670;12.006;2022-09-27T11:24:50;99242.19;;;20.48;100.00
13013;BME280;22580;57.670;12.006;2022-09-27T11:27:30;99243.59;;;20.30;100.00
13013;BME280;22580;57.670;12.006;2022-09-27T11:30:07;99239.00;;;20.24;100.00
13013;BME280;22580;57.670;12.006;2022-09-27T11:33:04;99202.06;;;19.90;100.00
13013;BME280;22580;57.670;12.006;2022-09-27T11:35:44;99238.16;;;20.17;100.00
13013;BME280;22580;57.670;12.006;2022-09-27T11:38:28;99232.38;;;20.40;100.00
13013;BME280;22580;57.670;12.006;2022-09-27T11:41:18;99227.34;;;20.50;100.00
13013;BME280;22580;57.670;12.006;2022-09-27T11:44:18;99242.38;;;20.59;100.00
13013;BME280;22580;57.670;12.006;2022-09-27T11:47:01;99235.28;;;20.52;100.00
13013;BME280;22580;57.670;12.006;2022-09-27T11:49:57;99240.69;;;20.65;100.00
13013;BME280;22580;57.670;12.006;2022-09-27T11:52:46;99240.03;;;20.10;100.00
13013;BME280;22580;57.670;12.006;2022-09-27T11:55:31;99248.78;;;19.86;100.00
13013;BME280;22580;57.670;12.006;2022-09-27T11:58:05;99236.91;;;19.87;100.00
13013;BME280;22580;57.670;12.006;2022-09-27T12:00:45;99245.66;;;19.89;100.00
13013;BME280;22580;57.670;12.006;2022-09-27T12:06:47;99251.44;;;19.66;100.00
13013;BME280;22580;57.670;12.006;2022-09-27T12:09:19;99237.50;;;19.82;100.00
13013;BME280;22580;57.670;12.006;2022-09-27T12:11:49;99244.19;;;20.00;100.00
13013;BME280;22580;57.670;12.006;2022-09-27T12:14:20;99242.34;;;20.13;100.00
13013;BME280;22580;57.670;12.006;2022-09-27T12:16:53;99256.91;;;19.86;100.00
13013;BME280;22580;57.670;12.006;2022-09-27T12:19:29;99242.09;;;19.95;100.00
13013;BME280;22580;57.670;12.006;2022-09-27T12:22:02;99253.16;;;20.00;100.00
13013;BME280;22580;57.670;12.006;2022-09-27T12:24:32;99259.22;;;20.09;100.00
13013;BME280;22580;57.670;12.006;2022-09-27T12:27:06;99238.38;;;20.22;100.00
13013;BME280;22580;57.670;12.006;2022-09-27T12:29:38;99260.28;;;20.27;100.00
13013;BME280;22580;57.670;12.006;2022-09-27T12:32:12;99257.13;;;19.97;100.00
13013;BME280;22580;57.670;12.006;2022-09-27T12:34:45;99268.19;;;20.03;100.00
13013;BME280;22580;57.670;12.006;2022-09-27T12:37:18;99263.13;;;19.67;100.00
13013;BME280;22580;57.670;12.006;2022-09-27T12:39:50;99256.44;;;19.62;100.00
13013;BME280;22580;57.670;12.006;2022-09-27T12:42:23;99274.97;;;19.59;100.00
13013;BME280;22580;57.670;12.006;2022-09-27T12:44:51;99204.72;;;19.16;100.00
13013;BME280;22580;57.670;12.006;2022-09-27T12:47:32;99259.03;;;19.43;100.00
13013;BME280;22580;57.670;12.006;2022-09-27T12:50:07;99253.63;;;19.49;100.00
13013;BME280;22580;57.670;12.006;2022-09-27T12:52:41;99247.75;;;19.39;100.00
13013;BME280;22580;57.670;12.006;2022-09-27T12:55:38;99266.41;;;19.55;100.00
13013;BME280;22580;57.670;12.006;2022-09-27T12:58:22;99270.31;;;19.05;100.00
13013;BME280;22580;57.670;12.006;2022-09-27T13:00:57;99261.97;;;19.07;100.00
13013;BME280;22580;57.670;12.006;2022-09-27T13:03:39;99237.53;;;19.35;100.00
13013;BME280;22580;57.670;12.006;2022-09-27T13:06:28;99264.44;;;19.43;100.00
13013;BME280;22580;57.670;12.006;2022-09-27T13:12:02;99267.13;;;19.97;100.00
13013;BME280;22580;57.670;12.006;2022-09-27T13:14:40;99269.88;;;20.10;100.00
13013;BME280;22580;57.670;12.006;2022-09-27T13:20:31;99270.53;;;20.32;100.00